Flight Track Log - Related Links

Times and Time Zones

All times are in EDT time to prevent confusion due to time zone crossing. See the EGF4383 flight status page for this flight to view local times or setup timezone preferences in your user account.

Time Position Orientation Groundspeed Altitude Reporting Facility
EDT Latitude Longitude Course Direction KTS MPH feet Rate Location/Type
Mon 05:42:10 PM 38.1500 -78.4500 298° West 162 186 1,200  Level Potomac TRACON
Mon 05:43:30 PM 38.2119 -78.4669 348° North 199 229 4,000 2,087 Climbing Washington Center
Mon 05:44:00 PM 38.2441 -78.7655 293° West  Level FlightAware Approximate
Mon 05:44:28 PM 38.2372 -78.5339 296° West 204 235 6,000  Level Washington Center
Mon 05:45:00 PM 38.2868 -78.8692 299° West  Level FlightAware Approximate
Mon 05:45:28 PM 38.2686 -78.6172 296° West 236 272 8,200  Level Washington Center
Mon 05:46:00 PM 38.3303 -78.9726 298° West  Level FlightAware Approximate
Mon 05:46:28 PM 38.3017 -78.7111 294° West 252 290 9,000  Level Washington Center
Mon 05:47:00 PM 38.3735 -79.0762 298° West  Level FlightAware Approximate
Mon 05:47:29 PM 38.3328 -78.7997 294° West 271 312 10,100  Level Washington Center
Mon 05:48:29 PM 38.3675 -78.8967 295° West 284 327 12,200 2,083 Climbing Washington Center
Mon 05:49:30 PM 38.4003 -78.9961 293° West 289 333 14,300 1,983 Climbing Washington Center
Mon 05:50:30 PM 38.4311 -79.0797 295° West 300 345 16,200 1,795 Climbing Washington Center
Mon 05:51:27 PM 38.4658 -79.1822 293° West 300 345 17,800 1,664 Climbing Washington Center
Mon 05:52:29 PM 38.5003 -79.2847 293° West 300 345 19,500 1,770 Climbing Washington Center
Mon 05:53:29 PM 38.5403 -79.4008 294° West 318 366 21,400 1,513 Climbing Washington Center
Mon 05:54:28 PM 38.5783 -79.5117 294° West 328 377 22,500 1,008 Climbing Washington Center
Mon 05:55:28 PM 38.6183 -79.6306 293° West 343 395 23,400 750 Climbing Washington Center
Mon 05:56:28 PM 38.6581 -79.7525 293° West 359 413 24,000 492 Climbing Washington Center
Mon 05:57:30 PM 38.6997 -79.8719 294° West 394 453 24,400 885 Climbing Washington Center
Mon 05:58:30 PM 38.7469 -80.0025 295° West 399 459 25,800 1,424 Climbing Washington Center
Mon 05:59:28 PM 38.8117 -80.1131 307° West 399 459 27,200 1,514 Climbing Washington Center
Mon 06:00:17 PM 38.8642 -80.1964 309° West 378 435 28,500 1,514 Climbing Indianapolis Center
Mon 06:01:19 PM 38.9156 -80.3092 300° West 371 427 30,000 1,403 Climbing Indianapolis Center
Mon 06:02:21 PM 38.9592 -80.4261 296° West 366 421 31,400 1,161 Climbing Indianapolis Center
Mon 06:03:23 PM 39.0056 -80.5431 297° West 368 423 32,400 774 Climbing Indianapolis Center
Mon 06:04:25 PM 39.0583 -80.6586 300° West 375 432 33,000 290 Climbing Indianapolis Center
Mon 06:05:27 PM 39.1256 -80.8072 300° West 402 463 33,000 532 Level Indianapolis Center
Mon 06:06:29 PM 39.1844 -80.9356 301° West 416 479 34,100 1,210 Climbing Indianapolis Center
Mon 06:07:31 PM 39.2397 -81.0581 300° West 401 461 35,500 919 Climbing Indianapolis Center
Mon 06:08:33 PM 39.2950 -81.1778 301° West 394 453 36,000 242 Climbing Indianapolis Center
Mon 06:09:35 PM 39.3511 -81.3050 300° West 405 466 36,000  Level Indianapolis Center
Mon 06:10:37 PM 39.4183 -81.4561 300° West 408 470 36,000  Level Indianapolis Center
Mon 06:11:39 PM 39.4733 -81.5803 300° West 401 461 36,000  Level Indianapolis Center
Mon 06:12:41 PM 39.5272 -81.7019 300° West 393 452 36,000  Level Indianapolis Center
Mon 06:13:43 PM 39.5800 -81.8228 300° West 388 447 36,000  Level Indianapolis Center
Mon 06:14:45 PM 39.6336 -81.9425 300° West 387 445 36,000  Level Indianapolis Center
Mon 06:15:47 PM 39.6856 -82.0653 299° West 388 447 36,000  Level Indianapolis Center
Mon 06:16:49 PM 39.7428 -82.1958 300° West 391 450 36,000  Level Indianapolis Center
Mon 06:17:51 PM 39.7967 -82.3200 299° West 391 450 36,000  Level Indianapolis Center
Mon 06:18:53 PM 39.8592 -82.4644 299° West 389 448 36,000  Level Indianapolis Center
Mon 06:19:55 PM 39.9125 -82.5886 299° West 391 450 36,000  Level Indianapolis Center
Mon 06:20:57 PM 39.9658 -82.7128 299° West 391 450 36,000  Level Indianapolis Center
Mon 06:21:59 PM 40.0189 -82.8386 299° West 394 453 36,000  Level Indianapolis Center
Mon 06:23:01 PM 40.0736 -82.9667 299° West 400 460 36,000  Level Indianapolis Center
Mon 06:24:03 PM 40.1272 -83.0950 299° West 402 463 36,000  Level Indianapolis Center
Mon 06:25:05 PM 40.1900 -83.2431 299° West 399 459 36,000  Level Indianapolis Center
Mon 06:26:07 PM 40.2439 -83.3706 299° West 401 461 36,000  Level Indianapolis Center
Mon 06:27:09 PM 40.2961 -83.4972 298° West 396 456 36,000  Level Indianapolis Center
Mon 06:28:11 PM 40.3483 -83.6256 298° West 397 457 36,000  Level Indianapolis Center
Mon 06:29:13 PM 40.4019 -83.7539 299° West 398 458 36,000  Level Indianapolis Center
Mon 06:30:15 PM 40.4636 -83.9044 298° West 401 461 36,000 -242 Level Indianapolis Center
Mon 06:31:17 PM 40.5161 -84.0336 298° West 399 459 35,500 -720 Descending Indianapolis Center
Mon 06:32:20 PM 40.5686 -84.1600 299° West 393 452 34,500 -720 Descending Indianapolis Center
Mon 06:33:22 PM 40.6222 -84.2903 298° West 401 461 34,000 -244 Descending Indianapolis Center
Mon 06:34:23 PM 40.6736 -84.4194 298° West 400 460 34,000  Level Chicago Center
Mon 06:35:25 PM 40.7256 -84.5503 298° West 403 464 34,000  Level Chicago Center
Mon 06:36:27 PM 40.7781 -84.6806 298° West 402 463 34,000  Level Chicago Center
Mon 06:37:29 PM 40.8306 -84.8125 298° West 404 465 34,000  Level Chicago Center
Mon 06:38:31 PM 40.8925 -84.9697 298° West 403 464 34,000  Level Chicago Center
Mon 06:39:33 PM 40.9411 -85.1031 296° West 403 464 34,000  Level Chicago Center
Mon 06:40:35 PM 40.9911 -85.2342 297° West 400 460 34,000  Level Chicago Center
Mon 06:41:38 PM 41.0397 -85.3669 296° West 400 460 34,000 -968 Level Chicago Center
Mon 06:42:39 PM 41.0883 -85.4992 296° West 399 459 32,000 -2,439 Descending Chicago Center
Mon 06:43:41 PM 41.1356 -85.6286 296° West 391 450 29,000 -3,145 Descending Chicago Center
Mon 06:44:43 PM 41.1958 -85.7933 296° West 412 474 25,500 -1,935 Descending Chicago Center
Mon 06:45:45 PM 41.2444 -85.9264 296° West 402 463 25,000 -240 Descending Chicago Center
Mon 06:46:48 PM 41.2914 -86.0631 295° West 400 460 25,000  Level Chicago Center
Mon 06:47:50 PM 41.3256 -86.2047 288° West 410 472 25,000 -290 Level Chicago Center
Mon 06:48:52 PM 41.3606 -86.3475 288° West 406 467 24,400 -1,742 Descending Chicago Center
Mon 06:49:54 PM 41.3958 -86.4869 289° West 400 460 21,400 -2,903 Descending Chicago Center
Mon 06:50:56 PM 41.4289 -86.6200 288° West 383 441 18,400 -3,097 Descending Chicago Center
Mon 06:51:58 PM 41.4667 -86.7750 288° West 375 432 15,000 -2,806 Descending Chicago Center
Mon 06:53:00 PM 41.4978 -86.8958 289° West 356 410 12,600 -1,452 Descending Chicago Center
Mon 06:54:02 PM 41.5264 -87.0158 288° West 345 397 12,000 -339 Descending Chicago Center
Mon 06:55:04 PM 41.5553 -87.1347 288° West 340 391 11,900  Descending Chicago Center
Mon 06:55:53 PM 41.5833 -87.2500 288° West 329 379 12,000 55 Climbing Chicago TRACON
Mon 06:56:53 PM 41.6333 -87.3500 304° West 344 396 12,000  Level Chicago TRACON
Mon 06:57:08 PM 41.6406 -87.3694 296° West 335 386 12,000 -538 Level Chicago Center
Mon 06:58:11 PM 41.7086 -87.4536 317° Northwest 335 386 11,300 -803 Descending Chicago Center
Mon 06:59:15 PM 41.7617 -87.5375 310° West 301 346 10,300 -1,286 Descending Chicago Center
Mon 07:00:17 PM 41.8300 -87.6092 322° Northwest 265 305 8,600 -1,653 Descending Chicago Center
Mon 07:00:53 PM 41.8667 -87.6500 320° Northwest 269 310 7,600 -938 Descending Chicago TRACON
Mon 07:01:53 PM 41.9333 -87.7000 331° Northwest 264 304 7,100 -793 Descending Chicago TRACON
Mon 07:02:54 PM 42.0000 -87.7000 360° North 230 265 6,000 -1,488 Descending Chicago TRACON
Mon 07:03:54 PM 42.0333 -87.7500 312° West 210 242 4,100 -1,900 Descending Chicago TRACON

Login

Don't have an account? Register now (free) for customized features, flight alerts, and more!